CLR weather

Cliff Hatfield Memorial Airport
Calipatria, California, United States

Public forecast

Using degrees Fahrenheit for public forecast. Weather courtesy of forecast.io.

Closest aviation weather report (METAR) to Cliff Hatfield Memorial Airport

Closest report is Imperial County Airport, 18.1 nm (33.5 km) S. Retrieved 2020/04/01 22:53 UTC (8 minutes ago):

KIPL 012253Z AUTO 20009G16KT 10SM CLR 32/00 A2966 RMK AO2 SLP042 T03170000

Closest aviation forecast (TAF) to Cliff Hatfield Memorial Airport

Closest forecast is Imperial County Airport, 18.1 nm (33.5 km) S. Retrieved 2020/04/01 18:24 UTC (5 hours ago):

TAF KIPL 011721Z 0118/0218 15006KT P6SM SCT200 FM012200 21012G20KT P6SM FEW200 FM020300 26015G24KT P6SM SKC FM021500 28009KT P6SM SKC